Time;durP1;ratioP1;P1;durP2;ratioP2;P2;SDS_P1;SDS_P2;PMS_P1;PMS_P2;Temp;Humidity;BMP_temperature;BMP_pressure;BME280_temperature;BME280_humidity;BME280_pressure;Samples;Min_cycle;Max_cycle;Signal;HPM_P1;HPM_P2
2022/09/05 00:00:06;;;;;;;8.93;4.70;;;18.60;99.90;;;;;;5076633;28;20052;-89
2022/09/05 00:02:36;;;;;;;9.48;4.80;;;18.50;99.90;;;;;;5076237;28;20050;-90
2022/09/05 00:05:43;;;;;;;10.70;5.00;;;18.70;99.90;;;;;;5093545;28;20479;-89
2022/09/05 00:08:30;;;;;;;9.20;5.07;;;18.50;99.90;;;;;;4997822;28;20054;-89
2022/09/05 00:11:12;;;;;;;9.70;4.60;;;18.50;99.90;;;;;;5073098;28;20055;-90
2022/09/05 00:13:43;;;;;;;11.65;5.15;;;18.50;99.90;;;;;;5093978;28;20040;-89
2022/09/05 00:16:24;;;;;;;10.90;5.38;;;18.50;99.90;;;;;;5076375;28;20134;-89
2022/09/05 00:19:01;;;;;;;9.45;4.72;;;18.40;99.90;;;;;;5082243;28;20040;-90
2022/09/05 00:21:36;;;;;;;9.27;4.97;;;18.30;99.90;;;;;;5094734;28;20511;-89
2022/09/05 00:24:22;;;;;;;11.55;4.78;;;18.20;99.90;;;;;;5076012;28;20552;-89
2022/09/05 00:26:58;;;;;;;10.48;4.90;;;18.20;99.90;;;;;;5075299;28;20047;-89
2022/09/05 00:30:01;;;;;;;9.40;4.95;;;18.20;99.90;;;;;;5075386;28;20040;-90
2022/09/05 00:32:45;;;;;;;9.95;4.78;;;18.10;99.90;;;;;;5074745;28;20136;-90
2022/09/05 00:35:33;;;;;;;10.55;4.85;;;18.10;99.90;;;;;;5097995;28;20055;-90
2022/09/05 00:38:11;;;;;;;9.00;4.78;;;18.00;99.90;;;;;;5076071;28;20052;-89
2022/09/05 00:40:50;;;;;;;11.23;5.05;;;18.40;99.90;;;;;;5074905;28;20044;-89
2022/09/05 00:43:23;;;;;;;9.38;4.90;;;18.00;99.90;;;;;;5074848;28;20419;-90
2022/09/05 00:46:11;;;;;;;9.32;4.63;;;17.90;99.90;;;;;;5092643;28;20063;-89
2022/09/05 00:49:11;;;;;;;11.15;5.20;;;17.90;99.90;;;;;;5093483;28;20079;-89
2022/09/05 00:51:45;;;;;;;9.60;5.05;;;17.90;99.90;;;;;;5079803;28;20052;-89
2022/09/05 00:54:23;;;;;;;9.70;4.70;;;17.80;99.90;;;;;;5075100;28;20500;-89
2022/09/05 00:57:29;;;;;;;10.38;4.80;;;17.80;99.90;;;;;;5075227;28;20441;-89
2022/09/05 01:00:07;;;;;;;8.95;4.72;;;17.80;99.90;;;;;;5074599;28;20044;-90
2022/09/05 01:03:09;;;;;;;10.10;5.00;;;17.70;99.90;;;;;;5093121;28;20498;-89
2022/09/05 01:05:48;;;;;;;9.68;5.60;;;17.70;99.90;;;;;;5075070;28;20055;-89
2022/09/05 01:08:19;;;;;;;10.35;5.35;;;17.60;99.90;;;;;;5074516;28;20058;-89
2022/09/05 01:11:32;;;;;;;9.18;5.15;;;17.60;99.90;;;;;;5075365;28;20498;-89
2022/09/05 01:14:18;;;;;;;13.10;5.80;;;17.60;99.90;;;;;;4999523;28;20476;-89
2022/09/05 01:17:09;;;;;;;11.30;5.45;;;17.50;99.90;;;;;;5075278;28;20047;-89
2022/09/05 01:20:33;;;;;;;11.25;5.63;;;17.50;99.90;;;;;;5074730;28;20079;-89
2022/09/05 01:23:07;;;;;;;10.05;5.38;;;17.50;99.90;;;;;;5030332;28;20458;-89
2022/09/05 01:25:52;;;;;;;11.52;5.88;;;17.40;99.90;;;;;;5093272;28;20093;-90
2022/09/05 01:28:36;;;;;;;12.90;5.90;;;17.40;99.90;;;;;;5091648;28;20133;-89
2022/09/05 01:31:14;;;;;;;12.35;5.60;;;17.30;99.90;;;;;;5086235;28;20040;-89
2022/09/05 01:34:13;;;;;;;11.30;5.53;;;17.40;99.90;;;;;;5079023;28;20052;-89
2022/09/05 01:37:21;;;;;;;11.07;5.45;;;17.30;99.90;;;;;;5069462;28;20044;-89
2022/09/05 01:40:03;;;;;;;9.75;5.80;;;17.20;99.90;;;;;;5093192;28;20051;-89
2022/09/05 01:42:54;;;;;;;9.95;6.10;;;17.20;99.90;;;;;;5092136;28;20059;-89
2022/09/05 01:45:58;;;;;;;9.50;5.53;;;17.20;99.90;;;;;;5074693;28;20036;-89
2022/09/05 01:48:42;;;;;;;10.45;5.80;;;17.10;99.90;;;;;;5094261;28;20089;-89
2022/09/05 01:51:21;;;;;;;11.52;5.85;;;17.10;99.90;;;;;;5075168;28;20089;-89
2022/09/05 01:54:11;;;;;;;10.55;5.85;;;17.10;99.90;;;;;;5095847;28;20073;-88
2022/09/05 01:57:28;;;;;;;11.45;5.50;;;17.10;99.90;;;;;;5113329;28;20048;-88
2022/09/05 02:00:11;;;;;;;10.07;5.53;;;17.00;99.90;;;;;;5040103;28;20052;-89
2022/09/05 02:02:50;;;;;;;11.10;5.90;;;17.00;99.90;;;;;;5066504;28;20056;-89
2022/09/05 02:05:27;;;;;;;10.95;5.70;;;17.00;99.90;;;;;;5058262;28;20140;-89
2022/09/05 02:08:40;;;;;;;11.25;6.07;;;17.00;99.90;;;;;;5058137;28;20053;-89
2022/09/05 02:11:11;;;;;;;11.25;5.68;;;17.00;99.90;;;;;;5033745;28;20063;-89
2022/09/05 02:13:38;;;;;;;11.65;5.93;;;17.00;99.90;;;;;;5075594;28;20579;-89
2022/09/05 02:16:15;;;;;;;11.23;5.90;;;16.90;99.90;;;;;;5076099;28;20067;-89
2022/09/05 02:19:09;;;;;;;9.88;5.90;;;16.90;99.90;;;;;;5057327;28;20052;-89
2022/09/05 02:21:40;;;;;;;9.68;5.80;;;16.90;99.90;;;;;;5057817;28;20045;-89
2022/09/05 02:24:24;;;;;;;10.32;6.15;;;16.80;99.90;;;;;;5076024;28;20044;-89
2022/09/05 02:27:19;;;;;;;10.13;5.95;;;16.80;99.90;;;;;;5075830;28;20481;-89
2022/09/05 02:30:13;;;;;;;10.05;5.90;;;16.70;99.90;;;;;;5075693;28;20416;-89
2022/09/05 02:32:44;;;;;;;10.98;6.00;;;16.70;99.90;;;;;;5074570;28;20484;-89
2022/09/05 02:35:19;;;;;;;11.25;6.20;;;16.70;99.90;;;;;;5057595;28;20492;-89
2022/09/05 02:37:47;;;;;;;10.73;5.82;;;16.70;99.90;;;;;;5057856;28;20488;-89
2022/09/05 02:40:43;;;;;;;10.43;6.18;;;16.60;99.90;;;;;;5056751;28;20044;-89
2022/09/05 02:43:17;;;;;;;10.68;6.28;;;16.70;99.90;;;;;;5044288;28;20143;-89
2022/09/05 02:46:18;;;;;;;10.88;6.60;;;16.70;99.90;;;;;;5074901;28;20040;-89
2022/09/05 02:49:00;;;;;;;9.90;5.70;;;16.60;99.90;;;;;;5044885;28;20056;-89
2022/09/05 02:51:50;;;;;;;12.43;6.22;;;16.60;99.90;;;;;;5057039;28;20052;-90
2022/09/05 02:54:30;;;;;;;10.50;6.13;;;16.50;99.90;;;;;;5055925;28;20424;-89
2022/09/05 02:57:10;;;;;;;10.57;6.60;;;16.70;99.90;;;;;;5057142;28;20408;-88
2022/09/05 03:00:10;;;;;;;11.75;6.47;;;16.40;99.90;;;;;;5056097;28;20045;-89
2022/09/05 03:03:33;;;;;;;10.43;6.18;;;16.40;99.90;;;;;;5056907;28;20044;-89
2022/09/05 03:06:03;;;;;;;13.38;6.30;;;16.40;99.90;;;;;;4958221;28;20043;-89
2022/09/05 03:08:57;;;;;;;11.82;6.75;;;16.30;99.90;;;;;;4972561;28;20050;-89
2022/09/05 03:11:56;;;;;;;10.85;6.82;;;16.30;99.90;;;;;;5042257;28;20048;-89
2022/09/05 03:14:39;;;;;;;12.07;6.45;;;16.30;99.90;;;;;;5057604;28;20049;-89
2022/09/05 03:17:21;;;;;;;11.95;6.75;;;16.20;99.90;;;;;;5074654;28;20554;-89
2022/09/05 03:20:02;;;;;;;13.98;7.20;;;16.20;99.90;;;;;;5057053;28;20447;-89
2022/09/05 03:22:57;;;;;;;12.35;6.97;;;16.20;99.90;;;;;;5055687;28;20041;-89
2022/09/05 03:26:07;;;;;;;10.13;6.47;;;16.10;99.90;;;;;;5056354;28;20055;-89
2022/09/05 03:29:10;;;;;;;12.63;7.00;;;16.10;99.90;;;;;;5055455;28;20040;-89
2022/09/05 03:31:45;;;;;;;12.85;7.13;;;16.10;99.90;;;;;;5056469;28;20369;-89
2022/09/05 03:34:22;;;;;;;12.50;7.00;;;16.00;99.90;;;;;;5074699;28;20048;-89
2022/09/05 03:37:03;;;;;;;10.57;6.85;;;16.00;99.90;;;;;;5055813;28;20545;-89
2022/09/05 03:40:07;;;;;;;13.23;7.40;;;15.90;99.90;;;;;;5056149;28;20055;-89
2022/09/05 03:42:48;;;;;;;11.73;7.00;;;16.00;99.90;;;;;;5055538;28;20048;-89
2022/09/05 03:45:26;;;;;;;12.10;7.25;;;16.00;99.90;;;;;;5055315;28;20401;-89
2022/09/05 03:48:03;;;;;;;10.48;7.22;;;15.90;99.90;;;;;;5056275;28;20059;-89
2022/09/05 03:51:01;;;;;;;12.10;7.40;;;15.90;99.90;;;;;;5072980;28;20072;-89
2022/09/05 03:53:41;;;;;;;12.18;7.18;;;15.80;99.90;;;;;;5034649;28;20063;-89
2022/09/05 03:56:36;;;;;;;12.15;7.40;;;15.80;99.90;;;;;;5055102;28;20041;-89
2022/09/05 03:59:30;;;;;;;12.13;8.07;;;15.80;99.90;;;;;;5074064;28;20124;-89
2022/09/05 04:02:03;;;;;;;12.32;7.50;;;15.80;99.90;;;;;;5088916;28;20043;-89
2022/09/05 04:04:41;;;;;;;12.82;7.55;;;15.70;99.90;;;;;;5074695;28;20138;-89
2022/09/05 04:07:29;;;;;;;12.73;7.30;;;15.70;99.90;;;;;;5071613;28;20135;-89
2022/09/05 04:10:12;;;;;;;11.88;7.53;;;15.70;99.90;;;;;;5071759;28;20106;-89
2022/09/05 04:12:52;;;;;;;12.00;7.97;;;15.70;99.90;;;;;;5073821;28;20086;-89
2022/09/05 04:15:25;;;;;;;11.90;7.90;;;15.70;99.90;;;;;;5072244;28;20143;-89
2022/09/05 04:18:16;;;;;;;11.82;7.10;;;15.60;99.90;;;;;;5073198;28;20201;-89
2022/09/05 04:21:01;;;;;;;10.82;7.43;;;15.60;99.90;;;;;;5071863;28;20102;-89
2022/09/05 04:23:30;;;;;;;;;;;15.60;99.90;;;;;;5072625;28;20048;-89
2022/09/05 04:26:14;;;;;;;11.85;7.88;;;15.50;99.90;;;;;;5071792;28;19921;-89
2022/09/05 04:29:05;;;;;;;12.73;7.75;;;15.50;99.90;;;;;;5072167;28;20051;-89
2022/09/05 04:32:01;;;;;;;13.38;7.60;;;15.50;99.90;;;;;;5071390;28;20048;-89
2022/09/05 04:35:05;;;;;;;12.45;7.88;;;15.40;99.90;;;;;;5074632;28;20089;-89
2022/09/05 04:38:09;;;;;;;11.93;8.00;;;15.40;99.90;;;;;;5071813;28;20050;-89
2022/09/05 04:41:01;;;;;;;11.93;8.23;;;15.40;99.90;;;;;;5031699;28;20118;-89
2022/09/05 04:43:43;;;;;;;13.15;8.27;;;15.40;99.90;;;;;;5072857;28;20454;-89
2022/09/05 04:46:28;;;;;;;12.75;8.10;;;15.30;99.90;;;;;;5071948;28;20072;-87
2022/09/05 04:49:15;;;;;;;12.57;7.95;;;15.40;99.90;;;;;;5073261;28;20378;-89
2022/09/05 04:52:09;;;;;;;12.45;8.20;;;15.20;99.90;;;;;;5072359;28;20498;-89
2022/09/05 04:55:26;;;;;;;14.60;8.35;;;15.20;99.90;;;;;;5073080;28;20067;-89
2022/09/05 04:58:14;;;;;;;12.68;7.97;;;15.10;99.90;;;;;;5069093;28;20071;-89
2022/09/05 05:00:52;;;;;;;11.75;8.02;;;15.10;99.90;;;;;;5067354;28;20033;-88
2022/09/05 05:03:29;;;;;;;12.32;7.78;;;15.10;99.90;;;;;;5053950;28;20131;-89
2022/09/05 05:05:59;;;;;;;12.73;7.88;;;15.10;99.90;;;;;;5052689;28;20041;-89
2022/09/05 05:08:42;;;;;;;15.07;8.93;;;15.10;99.90;;;;;;5053485;28;20057;-91
2022/09/05 05:11:22;;;;;;;13.90;7.95;;;15.10;99.90;;;;;;5051983;28;20053;-88
2022/09/05 05:14:00;;;;;;;13.10;8.38;;;15.10;99.90;;;;;;5050980;28;20053;-90
2022/09/05 05:16:36;;;;;;;12.82;8.20;;;15.00;99.90;;;;;;5053315;28;20447;-91
2022/09/05 05:19:21;;;;;;;13.20;8.15;;;15.10;99.90;;;;;;5054161;28;20051;-91
2022/09/05 05:21:57;;;;;;;12.27;7.82;;;15.10;99.90;;;;;;5051556;28;20474;-90
2022/09/05 05:24:40;;;;;;;15.27;8.57;;;15.10;99.90;;;;;;5051074;28;20092;-89
2022/09/05 05:28:00;;;;;;;11.98;7.95;;;15.10;99.90;;;;;;5051853;28;20091;-88
2022/09/05 05:30:40;;;;;;;15.20;8.40;;;15.20;99.90;;;;;;5013022;28;20049;-89
2022/09/05 05:33:40;;;;;;;12.60;8.68;;;15.10;99.90;;;;;;5055447;28;20119;-90
2022/09/05 05:36:16;;;;;;;12.90;8.15;;;15.70;99.90;;;;;;5056285;28;20072;-87
2022/09/05 05:38:52;;;;;;;13.68;8.60;;;16.10;99.90;;;;;;5056957;28;20052;-88
2022/09/05 05:41:26;;;;;;;13.23;8.02;;;16.20;99.90;;;;;;5055700;28;20412;-87
2022/09/05 05:43:52;;;;;;;15.65;8.32;;;15.30;99.90;;;;;;5055467;28;20389;-87
2022/09/05 05:46:29;;;;;;;13.65;8.80;;;16.30;99.90;;;;;;5056114;28;20037;-87
2022/09/05 05:49:18;;;;;;;12.32;8.25;;;15.40;99.90;;;;;;5055577;28;20053;-88
2022/09/05 05:52:04;;;;;;;12.43;8.10;;;16.40;99.90;;;;;;5056450;28;20060;-88
2022/09/05 05:54:52;;;;;;;15.30;8.55;;;15.50;99.90;;;;;;5056597;28;20049;-92
2022/09/05 05:57:35;;;;;;;13.73;8.60;;;15.60;99.90;;;;;;5060629;28;20076;-93
2022/09/05 06:00:20;;;;;;;13.43;8.60;;;15.70;99.90;;;;;;5057492;28;20473;-93
2022/09/05 06:03:23;;;;;;;12.35;8.27;;;15.70;99.90;;;;;;5055289;28;20081;-94
2022/09/05 06:06:06;;;;;;;13.13;9.07;;;15.70;99.90;;;;;;5055880;28;20119;-93
2022/09/05 06:08:50;;;;;;;15.52;9.07;;;15.80;99.90;;;;;;5054698;28;20152;-92
2022/09/05 06:12:17;;;;;;;14.98;9.18;;;15.90;99.90;;;;;;5054188;28;20056;-93
2022/09/05 06:15:02;;;;;;;12.27;8.65;;;16.00;99.90;;;;;;5051122;28;20056;-92
2022/09/05 06:17:47;;;;;;;12.68;8.65;;;16.10;99.90;;;;;;5055869;28;20040;-92
2022/09/05 06:20:55;;;;;;;13.25;8.77;;;16.20;99.90;;;;;;5056364;28;20041;-92
2022/09/05 06:23:49;;;;;;;13.55;9.05;;;16.30;99.90;;;;;;5055659;28;20041;-93
2022/09/05 06:26:54;;;;;;;12.75;8.55;;;16.30;99.90;;;;;;5056046;28;20481;-94
2022/09/05 06:29:50;;;;;;;15.38;9.23;;;16.40;99.90;;;;;;5054912;28;20086;-92
2022/09/05 06:32:39;;;;;;;14.07;8.80;;;16.50;99.90;;;;;;5055427;28;20041;-93
2022/09/05 06:41:46;;;;;;;13.35;9.02;;;16.70;99.90;;;;;;5058353;28;20032;-90
2022/09/05 06:47:41;;;;;;;14.05;8.30;;;17.00;99.90;;;;;;5003068;28;20050;-92
2022/09/05 06:51:02;;;;;;;13.65;8.93;;;17.90;99.90;;;;;;5014249;28;20065;-89
2022/09/05 06:53:52;;;;;;;13.43;8.80;;;17.20;99.90;;;;;;4997233;28;20061;-93
2022/09/05 06:56:49;;;;;;;14.10;8.68;;;17.30;99.90;;;;;;4997957;28;20120;-92
2022/09/05 06:59:55;;;;;;;15.77;9.32;;;17.40;99.90;;;;;;5014600;28;20149;-90
2022/09/05 07:02:46;;;;;;;14.43;8.63;;;17.50;99.90;;;;;;4997715;28;20054;-90
2022/09/05 07:09:03;;;;;;;14.27;8.68;;;17.70;99.90;;;;;;5016358;28;20041;-92
2022/09/05 07:15:22;;;;;;;15.40;8.23;;;18.00;99.90;;;;;;5013260;28;20046;-93
2022/09/05 07:22:07;;;;;;;12.98;7.97;;;18.20;99.90;;;;;;4974353;28;20410;-90
2022/09/05 07:24:59;;;;;;;13.25;8.30;;;18.40;99.90;;;;;;4998978;28;20077;-91
2022/09/05 07:45:44;;;;;;;14.55;8.02;;;19.30;99.90;;;;;;4928399;29;20070;-90
2022/09/05 07:48:33;;;;;;;12.68;7.90;;;19.60;99.90;;;;;;4933439;29;20079;-90
2022/09/05 07:51:39;;;;;;;14.55;7.93;;;19.70;99.90;;;;;;4916864;29;20048;-93
2022/09/05 07:54:23;;;;;;;14.27;7.78;;;19.70;99.90;;;;;;4871635;29;20513;-93
2022/09/05 07:56:54;;;;;;;12.23;7.65;;;19.90;99.90;;;;;;4887215;29;20140;-93
2022/09/05 07:59:25;;;;;;;13.40;7.78;;;20.70;99.90;;;;;;4901716;29;20051;-91
2022/09/05 08:01:53;;;;;;;13.90;7.72;;;20.50;99.90;;;;;;4935706;29;20515;-91
2022/09/05 08:04:30;;;;;;;12.32;7.47;;;20.80;99.90;;;;;;4936842;29;20522;-90
2022/09/05 08:07:00;;;;;;;13.43;7.35;;;20.50;99.90;;;;;;4921205;29;20054;-92
2022/09/05 08:10:04;;;;;;;12.68;6.93;;;20.60;99.90;;;;;;4919237;29;20047;-90
2022/09/05 08:13:05;;;;;;;12.02;6.90;;;20.70;99.90;;;;;;4920055;29;20051;-94
2022/09/05 08:15:31;;;;;;;12.55;7.07;;;20.90;99.90;;;;;;4935166;29;20110;-93
2022/09/05 08:21:47;;;;;;;12.00;7.53;;;21.20;99.90;;;;;;4918700;29;20127;-93
2022/09/05 08:24:19;;;;;;;11.48;7.22;;;21.30;99.90;;;;;;4918742;29;20047;-89
2022/09/05 08:27:03;;;;;;;13.20;6.80;;;21.40;99.90;;;;;;4919691;29;20160;-92
2022/09/05 08:29:52;;;;;;;12.57;7.10;;;22.20;99.90;;;;;;4939672;29;20042;-95
2022/09/05 08:33:47;;;;;;;11.43;7.10;;;21.70;99.90;;;;;;4940922;29;20055;-96
2022/09/05 08:36:37;;;;;;;10.63;6.60;;;22.00;99.90;;;;;;4880034;29;20046;-96
2022/09/05 08:39:05;;;;;;;12.85;6.80;;;22.20;99.90;;;;;;4908151;29;20132;-96
2022/09/05 08:42:05;;;;;;;12.48;6.47;;;22.40;99.90;;;;;;4902134;29;20052;-96
2022/09/05 08:44:55;;;;;;;12.38;6.30;;;22.50;99.90;;;;;;4867519;29;20081;-88
2022/09/05 08:47:43;;;;;;;9.80;5.93;;;22.70;99.90;;;;;;4864866;29;20088;-93
2022/09/05 08:50:47;;;;;;;11.57;6.25;;;22.80;99.90;;;;;;4915621;29;20051;-94
2022/09/05 08:53:53;;;;;;;10.95;6.15;;;22.90;99.90;;;;;;4958723;28;20043;-94
2022/09/05 08:56:54;;;;;;;11.07;5.93;;;23.10;99.90;;;;;;4958212;28;20055;-95
2022/09/05 09:03:10;;;;;;;13.07;6.18;;;23.90;99.90;;;;;;4955834;29;20049;-92
2022/09/05 09:05:54;;;;;;;12.68;6.00;;;23.50;99.90;;;;;;4953214;29;20057;-92
2022/09/05 09:08:57;;;;;;;11.82;5.85;;;23.60;99.90;;;;;;4953156;29;20054;-94
2022/09/05 09:11:47;;;;;;;11.33;6.47;;;23.70;99.90;;;;;;4940709;29;20101;-94
2022/09/05 09:14:34;;;;;;;10.65;5.90;;;23.80;99.90;;;;;;4955125;29;20315;-93
2022/09/05 09:17:13;;;;;;;10.57;5.65;;;23.90;99.90;;;;;;4955919;29;20047;-95
2022/09/05 09:20:25;;;;;;;9.35;5.28;;;24.00;99.90;;;;;;4937827;29;20055;-94
2022/09/05 09:22:59;;;;;;;11.45;5.18;;;24.20;99.90;;;;;;4954409;28;20113;-94
2022/09/05 09:25:31;;;;;;;9.10;5.25;;;24.40;99.90;;;;;;4954637;29;20125;-95
2022/09/05 09:28:05;;;;;;;9.80;5.63;;;24.50;99.90;;;;;;4954244;29;20083;-93
2022/09/05 09:30:33;;;;;;;11.07;5.15;;;24.70;99.90;;;;;;4953384;29;20126;-87
2022/09/05 09:33:05;;;;;;;9.52;5.10;;;24.70;99.90;;;;;;4937584;29;20500;-87
2022/09/05 09:35:52;;;;;;;10.45;4.60;;;24.80;99.90;;;;;;4952766;28;20049;-89
2022/09/05 09:38:24;;;;;;;12.50;4.93;;;24.90;99.90;;;;;;4953267;29;20090;-89
2022/09/05 09:41:27;;;;;;;10.77;4.97;;;25.10;99.90;;;;;;4951905;29;20133;-88
2022/09/05 09:44:14;;;;;;;10.55;5.22;;;25.20;99.90;;;;;;4953262;28;20051;-89
2022/09/05 09:46:44;;;;;;;11.68;4.70;;;25.50;99.90;;;;;;4954235;28;20047;-88
2022/09/05 09:49:34;;;;;;;11.38;5.70;;;25.60;99.90;;;;;;4953630;29;20047;-89
2022/09/05 09:52:11;;;;;;;14.57;5.55;;;25.80;99.90;;;;;;4953122;29;20051;-89
2022/09/05 09:55:15;;;;;;;12.60;5.18;;;25.80;99.90;;;;;;4953402;29;20051;-89
2022/09/05 09:57:43;;;;;;;9.95;5.20;;;25.90;99.90;;;;;;4939517;29;20510;-89
2022/09/05 10:00:11;;;;;;;9.80;5.40;;;26.10;99.90;;;;;;4957013;28;20499;-89
2022/09/05 10:03:20;;;;;;;11.65;5.10;;;26.20;99.90;;;;;;4972127;28;20054;-89
2022/09/05 10:06:24;;;;;;;10.38;5.65;;;26.30;99.30;;;;;;4971896;28;20043;-89
2022/09/05 10:09:17;;;;;;;11.95;4.88;;;26.50;99.40;;;;;;4971052;28;20054;-90
2022/09/05 10:12:29;;;;;;;9.20;4.20;;;26.70;98.70;;;;;;4938152;28;20054;-89
2022/09/05 10:15:00;;;;;;;9.05;4.72;;;26.90;99.60;;;;;;4971651;28;20089;-89
2022/09/05 10:17:45;;;;;;;10.85;4.43;;;27.10;99.80;;;;;;4963482;28;20055;-90
2022/09/05 10:20:19;;;;;;;9.93;4.80;;;27.30;98.00;;;;;;4959405;28;20513;-89
2022/09/05 10:23:11;;;;;;;9.45;4.20;;;27.40;98.50;;;;;;4976006;28;20057;-89
2022/09/05 10:26:21;;;;;;;11.00;4.50;;;27.50;98.00;;;;;;4975433;28;20050;-87
2022/09/05 10:29:11;;;;;;;10.40;4.25;;;27.60;96.80;;;;;;4935996;29;20452;-88
2022/09/05 10:31:47;;;;;;;9.50;4.47;;;27.80;97.20;;;;;;4937364;29;20415;-88
2022/09/05 10:34:25;;;;;;;10.73;4.32;;;27.70;97.30;;;;;;4938602;29;20051;-87
2022/09/05 10:36:58;;;;;;;8.75;4.05;;;27.80;96.80;;;;;;4936618;29;20048;-88
2022/09/05 10:39:28;;;;;;;11.77;4.20;;;27.80;97.10;;;;;;4936910;29;20063;-88
2022/09/05 10:42:02;;;;;;;9.18;4.30;;;27.80;97.10;;;;;;4936877;29;20167;-84
2022/09/05 10:44:41;;;;;;;8.75;3.70;;;27.80;96.90;;;;;;4953599;28;20408;-82
2022/09/05 10:47:19;;;;;;;8.77;4.00;;;28.00;96.70;;;;;;4956978;29;20050;-83
2022/09/05 10:49:49;;;;;;;8.75;3.40;;;28.20;96.60;;;;;;4955904;28;20051;-94
2022/09/05 10:52:22;;;;;;;10.05;3.65;;;28.30;95.70;;;;;;4955100;28;20134;-89
2022/09/05 10:55:20;;;;;;;8.25;3.60;;;28.40;94.20;;;;;;4956445;29;20043;-90
2022/09/05 10:58:04;;;;;;;10.02;3.30;;;28.40;93.80;;;;;;4955241;29;20047;-90
2022/09/05 11:00:55;;;;;;;7.43;3.35;;;28.70;95.10;;;;;;4956179;29;20086;-89
2022/09/05 11:03:58;;;;;;;8.48;3.53;;;28.90;94.40;;;;;;4955547;29;20054;-89
2022/09/05 11:06:51;;;;;;;12.70;3.30;;;29.10;94.70;;;;;;4918857;29;20064;-89
2022/09/05 11:09:28;;;;;;;7.45;3.30;;;29.30;94.20;;;;;;4930152;29;20055;-89
2022/09/05 11:12:21;;;;;;;8.05;3.05;;;29.40;93.60;;;;;;4954967;29;20051;-88
2022/09/05 11:14:58;;;;;;;9.15;3.20;;;29.50;92.50;;;;;;4955622;29;20047;-88
2022/09/05 11:17:30;;;;;;;7.28;3.05;;;29.60;93.00;;;;;;4955027;29;20054;-88
2022/09/05 11:20:21;;;;;;;7.00;3.10;;;29.80;93.20;;;;;;4954945;29;20067;-88
2022/09/05 11:22:50;;;;;;;8.95;3.40;;;29.80;92.40;;;;;;4955168;29;20554;-90
2022/09/05 11:25:23;;;;;;;9.30;3.17;;;29.90;92.60;;;;;;4955455;29;20054;-89
2022/09/05 11:27:52;;;;;;;8.27;3.60;;;29.90;91.70;;;;;;4962343;28;20103;-90
2022/09/05 11:30:23;;;;;;;7.53;3.15;;;29.80;92.30;;;;;;4961450;28;20047;-89
2022/09/05 11:33:08;;;;;;;6.80;3.00;;;29.70;92.00;;;;;;4963297;28;20135;-90
2022/09/05 11:42:53;;;;;;;8.70;3.40;;;30.40;91.00;;;;;;5033687;28;20055;-91
2022/09/05 11:56:59;;;;;;;7.70;2.90;;;30.80;89.80;;;;;;4972420;28;20174;-87
2022/09/05 12:10:37;;;;;;;8.32;3.20;;;30.80;89.60;;;;;;4971933;28;20050;-83
2022/09/05 12:13:15;;;;;;;7.60;3.28;;;30.90;88.70;;;;;;4956334;28;20138;-85
2022/09/05 12:15:45;;;;;;;7.70;3.20;;;30.90;87.20;;;;;;4955734;28;20058;-84
2022/09/05 12:18:35;;;;;;;8.38;3.47;;;31.10;89.50;;;;;;5012415;28;20046;-84
2022/09/05 12:21:19;;;;;;;8.63;3.20;;;31.30;88.60;;;;;;5015928;28;20406;-83
2022/09/05 12:24:01;;;;;;;8.43;3.25;;;31.60;88.90;;;;;;5014978;28;20505;-85
2022/09/05 12:26:32;;;;;;;7.30;3.30;;;31.70;88.00;;;;;;5029245;28;20069;-81
2022/09/05 12:29:11;;;;;;;9.23;3.20;;;31.90;87.70;;;;;;5020944;28;20042;-81
2022/09/05 12:31:45;;;;;;;7.20;3.30;;;32.00;85.40;;;;;;4995668;28;20049;-81
2022/09/05 12:34:17;;;;;;;10.43;3.38;;;31.60;87.00;;;;;;5013493;28;20125;-81
2022/09/05 12:36:49;;;;;;;9.00;3.50;;;31.10;87.20;;;;;;5012710;28;20058;-81
2022/09/05 12:39:42;;;;;;;8.32;3.50;;;30.70;88.10;;;;;;5012922;28;20046;-82
2022/09/05 12:42:36;;;;;;;7.30;3.35;;;30.70;85.20;;;;;;4995248;28;20052;-81
2022/09/05 12:45:23;;;;;;;10.40;3.58;;;31.00;86.60;;;;;;5012103;28;20092;-84
2022/09/05 12:47:57;;;;;;;8.00;3.00;;;31.30;85.30;;;;;;5008427;28;20050;-84
2022/09/05 13:18:39;;;;;;;8.18;3.08;;;32.90;84.00;;;;;;4942088;28;20093;-83
2022/09/05 13:21:19;;;;;;;7.60;2.85;;;33.20;81.60;;;;;;4974011;28;20053;-83
2022/09/05 13:24:00;;;;;;;8.18;2.75;;;33.20;82.60;;;;;;4956632;28;20054;-83
2022/09/05 13:26:50;;;;;;;6.78;2.88;;;33.20;80.30;;;;;;4973008;28;20129;-83
2022/09/05 13:29:23;;;;;;;8.13;2.92;;;33.30;80.10;;;;;;4973543;28;20047;-83
2022/09/05 13:31:52;;;;;;;6.88;2.60;;;33.50;81.60;;;;;;4973525;28;20043;-83
2022/09/05 13:34:21;;;;;;;6.78;2.65;;;33.60;81.80;;;;;;4972418;28;20057;-83
2022/09/05 13:36:58;;;;;;;7.85;3.00;;;33.80;80.70;;;;;;4962338;28;20050;-83
2022/09/05 13:47:36;;;;;;;8.15;2.90;;;33.90;79.20;;;;;;4879773;29;20051;-82
2022/09/05 13:54:50;;;;;;;7.28;2.72;;;34.00;78.80;;;;;;4895764;29;20413;-82
2022/09/05 13:57:34;;;;;;;6.95;2.80;;;34.00;76.50;;;;;;4881915;29;20051;-85
2022/09/05 14:00:08;;;;;;;7.22;2.70;;;34.00;78.40;;;;;;4956627;28;20068;-85
2022/09/05 14:03:07;;;;;;;7.18;2.70;;;34.10;77.50;;;;;;4997989;28;20630;-85
2022/09/05 14:05:44;;;;;;;6.38;2.80;;;33.80;76.30;;;;;;5031730;28;20128;-85
2022/09/05 14:08:43;;;;;;;6.05;2.42;;;33.80;76.60;;;;;;5034781;28;20045;-85
2022/09/05 14:11:35;;;;;;;7.35;2.50;;;33.80;76.90;;;;;;5011365;28;20497;-84
2022/09/05 14:14:38;;;;;;;8.73;2.40;;;33.80;75.40;;;;;;5015926;28;20436;-84
2022/09/05 14:17:29;;;;;;;6.30;2.50;;;33.20;75.30;;;;;;5018087;28;20490;-84
2022/09/05 14:23:09;;;;;;;8.18;2.60;;;32.60;76.40;;;;;;5015924;28;20056;-84
2022/09/05 14:28:10;;;;;;;7.15;2.42;;;32.90;76.60;;;;;;5029689;22;20502;-84
2022/09/05 14:30:42;;;;;;;5.93;2.40;;;33.00;76.20;;;;;;5014608;28;20050;-86
2022/09/05 14:33:53;;;;;;;5.22;2.22;;;33.10;75.60;;;;;;5016249;28;20081;-86
2022/09/05 14:37:06;;;;;;;6.78;2.40;;;33.00;75.00;;;;;;4997198;28;20056;-85
2022/09/05 14:40:38;;;;;;;6.32;2.40;;;33.10;75.80;;;;;;4955185;29;20084;-85
2022/09/05 14:44:00;;;;;;;6.60;2.38;;;33.20;75.90;;;;;;4954724;28;20047;-83
2022/09/05 15:01:59;;;;;;;5.68;2.17;;;33.20;75.10;;;;;;4935299;29;20556;-88
2022/09/05 15:04:53;;;;;;;5.88;2.20;;;33.00;74.00;;;;;;4915811;29;20460;-87
2022/09/05 15:07:59;;;;;;;6.10;2.20;;;32.80;74.00;;;;;;4935478;29;20043;-86
2022/09/05 15:11:08;;;;;;;6.53;2.25;;;33.10;74.30;;;;;;4940317;28;20098;-88
2022/09/05 15:25:41;;;;;;;6.85;2.30;;;33.10;74.60;;;;;;5013018;28;20053;-89
2022/09/05 15:28:07;;;;;;;6.68;2.30;;;33.00;74.30;;;;;;4915447;29;20512;-87
2022/09/05 15:30:56;;;;;;;6.25;2.30;;;32.90;74.80;;;;;;4899291;29;20087;-86
2022/09/05 15:33:42;;;;;;;7.63;2.60;;;32.90;73.70;;;;;;4914348;29;20052;-87
2022/09/05 15:36:55;;;;;;;7.57;2.65;;;33.00;75.10;;;;;;4915905;29;20087;-86
2022/09/05 15:39:30;;;;;;;5.80;2.50;;;33.00;75.70;;;;;;4906454;29;20100;-88
2022/09/05 15:42:50;;;;;;;8.30;2.53;;;32.90;75.10;;;;;;5062215;23;20051;-91
2022/09/05 15:45:48;;;;;;;8.00;2.72;;;32.70;74.90;;;;;;5063847;28;20045;-86
2022/09/05 15:52:09;;;;;;;7.40;2.67;;;32.00;75.60;;;;;;5012530;28;20132;-88
2022/09/05 16:01:40;;;;;;;11.43;2.88;;;30.70;77.70;;;;;;5011027;28;20053;-86
2022/09/05 16:33:56;;;;;;;9.52;2.78;;;29.00;81.30;;;;;;4989191;28;20081;-86
2022/09/05 16:55:31;;;;;;;11.45;2.80;;;28.50;82.30;;;;;;4967967;28;20059;-87
2022/09/05 17:00:56;;;;;;;8.32;2.60;;;28.50;83.10;;;;;;5068036;23;20085;-85
2022/09/05 17:04:12;;;;;;;12.25;2.70;;;28.50;83.20;;;;;;4983805;23;20141;-86
2022/09/05 17:07:44;;;;;;;9.00;2.42;;;28.40;82.90;;;;;;4972243;28;20050;-86
2022/09/05 17:17:51;;;;;;;9.40;2.95;;;28.10;84.00;;;;;;4981228;28;20061;-87
2022/09/05 20:44:49;;;;;;;9.48;4.90;;;22.20;94.00;;;;;;5962762;23;20071;31
2022/09/05 21:23:56;;;;;;;13.10;5.28;;;22.10;94.90;;;;;;4918789;29;20404;-93
2022/09/05 21:29:38;;;;;;;9.48;4.82;;;22.00;94.40;;;;;;4905275;23;20048;-94
2022/09/05 21:32:25;;;;;;;11.32;5.00;;;22.00;94.30;;;;;;4882033;29;20104;-95
2022/09/05 21:35:13;;;;;;;9.88;5.28;;;22.10;94.50;;;;;;4882750;29;20080;-94
2022/09/05 21:38:20;;;;;;;9.43;4.55;;;22.00;94.40;;;;;;4881912;29;20080;-94
2022/09/05 21:44:15;;;;;;;8.82;5.15;;;21.90;94.30;;;;;;4898361;29;19971;-95
2022/09/05 21:50:48;;;;;;;10.77;4.90;;;22.00;94.00;;;;;;4901732;29;20046;-95
2022/09/05 21:53:46;;;;;;;11.80;5.10;;;22.60;94.10;;;;;;4883533;29;20044;-94
2022/09/05 21:56:24;;;;;;;12.63;4.55;;;22.00;94.00;;;;;;4882050;29;20048;-94
2022/09/05 21:58:54;;;;;;;11.85;4.70;;;22.00;94.30;;;;;;4881910;29;20393;-95
2022/09/05 22:01:37;;;;;;;10.43;5.45;;;21.90;94.00;;;;;;4897990;29;20504;-95
2022/09/05 22:04:08;;;;;;;9.63;5.07;;;22.10;94.30;;;;;;4881638;29;20085;-95
2022/09/05 22:06:47;;;;;;;9.05;4.70;;;21.80;94.20;;;;;;4949373;23;20669;-94